sensor_id;sensor_type;location;lat;lon;timestamp;P1;durP1;ratioP1;P2;durP2;ratioP2
22005;SDS011;11167;46.988;15.470;2023-07-20T00:00:32;5.42;;;1.95;;
22005;SDS011;11167;46.988;15.470;2023-07-20T00:02:33;3.72;;;2.02;;
22005;SDS011;11167;46.988;15.470;2023-07-20T00:04:34;3.85;;;2.35;;
22005;SDS011;11167;46.988;15.470;2023-07-20T00:06:35;2.87;;;2.27;;
22005;SDS011;11167;46.988;15.470;2023-07-20T00:08:36;3.30;;;2.25;;
22005;SDS011;11167;46.988;15.470;2023-07-20T00:10:37;3.50;;;2.40;;
22005;SDS011;11167;46.988;15.470;2023-07-20T00:12:39;3.27;;;2.12;;
22005;SDS011;11167;46.988;15.470;2023-07-20T00:14:41;4.35;;;2.50;;
22005;SDS011;11167;46.988;15.470;2023-07-20T00:16:52;3.12;;;2.10;;
22005;SDS011;11167;46.988;15.470;2023-07-20T00:19:04;2.42;;;2.05;;
22005;SDS011;11167;46.988;15.470;2023-07-20T00:21:07;3.37;;;2.42;;
22005;SDS011;11167;46.988;15.470;2023-07-20T00:23:08;5.25;;;2.55;;
22005;SDS011;11167;46.988;15.470;2023-07-20T00:25:09;2.45;;;2.25;;
22005;SDS011;11167;46.988;15.470;2023-07-20T00:27:12;6.28;;;2.17;;
22005;SDS011;11167;46.988;15.470;2023-07-20T00:29:13;3.45;;;2.33;;
22005;SDS011;11167;46.988;15.470;2023-07-20T00:31:14;3.75;;;2.30;;
22005;SDS011;11167;46.988;15.470;2023-07-20T00:33:16;3.12;;;2.22;;
22005;SDS011;11167;46.988;15.470;2023-07-20T00:35:18;4.17;;;2.50;;
22005;SDS011;11167;46.988;15.470;2023-07-20T00:37:19;3.47;;;2.17;;
22005;SDS011;11167;46.988;15.470;2023-07-20T00:39:22;3.25;;;1.90;;
22005;SDS011;11167;46.988;15.470;2023-07-20T00:41:24;2.52;;;2.33;;
22005;SDS011;11167;46.988;15.470;2023-07-20T00:43:28;3.47;;;2.25;;
22005;SDS011;11167;46.988;15.470;2023-07-20T00:45:32;3.55;;;2.60;;
22005;SDS011;11167;46.988;15.470;2023-07-20T00:51:53;2.90;;;1.92;;
22005;SDS011;11167;46.988;15.470;2023-07-20T00:53:56;3.67;;;2.20;;
22005;SDS011;11167;46.988;15.470;2023-07-20T00:55:58;3.00;;;2.10;;
22005;SDS011;11167;46.988;15.470;2023-07-20T00:57:59;3.12;;;2.20;;
22005;SDS011;11167;46.988;15.470;2023-07-20T01:00:03;2.65;;;1.92;;
22005;SDS011;11167;46.988;15.470;2023-07-20T01:04:08;3.85;;;2.08;;
22005;SDS011;11167;46.988;15.470;2023-07-20T01:10:43;4.47;;;2.40;;
22005;SDS011;11167;46.988;15.470;2023-07-20T01:12:47;2.35;;;1.82;;
22005;SDS011;11167;46.988;15.470;2023-07-20T01:14:50;2.15;;;1.95;;
22005;SDS011;11167;46.988;15.470;2023-07-20T01:16:53;2.62;;;2.10;;
22005;SDS011;11167;46.988;15.470;2023-07-20T01:18:54;2.50;;;2.00;;
22005;SDS011;11167;46.988;15.470;2023-07-20T01:20:58;2.70;;;2.15;;
22005;SDS011;11167;46.988;15.470;2023-07-20T01:23:17;1.70;;;1.60;;
22005;SDS011;11167;46.988;15.470;2023-07-20T01:30:27;2.00;;;1.62;;
22005;SDS011;11167;46.988;15.470;2023-07-20T01:32:33;3.08;;;2.10;;
22005;SDS011;11167;46.988;15.470;2023-07-20T01:34:35;2.55;;;1.98;;
22005;SDS011;11167;46.988;15.470;2023-07-20T01:36:38;3.90;;;2.30;;
22005;SDS011;11167;46.988;15.470;2023-07-20T01:38:40;2.52;;;2.00;;
22005;SDS011;11167;46.988;15.470;2023-07-20T01:40:42;3.62;;;2.15;;
22005;SDS011;11167;46.988;15.470;2023-07-20T01:42:47;4.37;;;2.37;;
22005;SDS011;11167;46.988;15.470;2023-07-20T01:44:50;4.30;;;2.25;;
22005;SDS011;11167;46.988;15.470;2023-07-20T01:49:14;3.35;;;2.15;;
22005;SDS011;11167;46.988;15.470;2023-07-20T01:51:16;3.22;;;2.10;;
22005;SDS011;11167;46.988;15.470;2023-07-20T01:53:19;3.22;;;2.22;;
22005;SDS011;11167;46.988;15.470;2023-07-20T01:55:21;2.95;;;2.35;;
22005;SDS011;11167;46.988;15.470;2023-07-20T01:57:22;3.70;;;1.98;;
22005;SDS011;11167;46.988;15.470;2023-07-20T01:59:23;2.98;;;1.90;;
22005;SDS011;11167;46.988;15.470;2023-07-20T02:01:24;5.28;;;2.00;;
22005;SDS011;11167;46.988;15.470;2023-07-20T02:03:25;1.92;;;1.67;;
22005;SDS011;11167;46.988;15.470;2023-07-20T02:05:27;3.20;;;1.87;;
22005;SDS011;11167;46.988;15.470;2023-07-20T02:07:28;5.20;;;2.00;;
22005;SDS011;11167;46.988;15.470;2023-07-20T02:09:29;4.95;;;2.15;;
22005;SDS011;11167;46.988;15.470;2023-07-20T02:11:31;4.58;;;2.27;;
22005;SDS011;11167;46.988;15.470;2023-07-20T02:13:32;3.25;;;1.85;;
22005;SDS011;11167;46.988;15.470;2023-07-20T02:15:34;2.17;;;1.82;;
22005;SDS011;11167;46.988;15.470;2023-07-20T02:17:35;4.70;;;1.92;;
22005;SDS011;11167;46.988;15.470;2023-07-20T02:19:37;1.95;;;1.85;;
22005;SDS011;11167;46.988;15.470;2023-07-20T02:21:39;2.08;;;1.80;;
22005;SDS011;11167;46.988;15.470;2023-07-20T02:23:40;2.20;;;1.77;;
22005;SDS011;11167;46.988;15.470;2023-07-20T02:25:41;2.40;;;1.60;;
22005;SDS011;11167;46.988;15.470;2023-07-20T02:27:42;2.37;;;1.98;;
22005;SDS011;11167;46.988;15.470;2023-07-20T02:29:43;2.58;;;1.80;;
22005;SDS011;11167;46.988;15.470;2023-07-20T02:31:44;2.30;;;1.70;;
22005;SDS011;11167;46.988;15.470;2023-07-20T02:33:45;1.75;;;1.50;;
22005;SDS011;11167;46.988;15.470;2023-07-20T02:35:46;2.10;;;1.57;;
22005;SDS011;11167;46.988;15.470;2023-07-20T02:37:48;3.75;;;1.80;;
22005;SDS011;11167;46.988;15.470;2023-07-20T02:39:49;2.10;;;1.90;;
22005;SDS011;11167;46.988;15.470;2023-07-20T02:41:50;2.40;;;1.92;;
22005;SDS011;11167;46.988;15.470;2023-07-20T02:43:52;2.27;;;1.85;;
22005;SDS011;11167;46.988;15.470;2023-07-20T02:45:53;2.10;;;1.75;;
22005;SDS011;11167;46.988;15.470;2023-07-20T02:47:54;2.37;;;1.98;;
22005;SDS011;11167;46.988;15.470;2023-07-20T02:49:56;2.27;;;2.05;;
22005;SDS011;11167;46.988;15.470;2023-07-20T02:51:57;3.08;;;2.17;;
22005;SDS011;11167;46.988;15.470;2023-07-20T02:53:59;4.05;;;2.00;;
22005;SDS011;11167;46.988;15.470;2023-07-20T02:56:00;4.85;;;2.00;;
22005;SDS011;11167;46.988;15.470;2023-07-20T02:58:02;2.83;;;2.30;;
22005;SDS011;11167;46.988;15.470;2023-07-20T03:00:13;4.28;;;2.08;;
22005;SDS011;11167;46.988;15.470;2023-07-20T03:02:17;2.87;;;2.15;;
22005;SDS011;11167;46.988;15.470;2023-07-20T03:04:18;2.17;;;1.75;;
22005;SDS011;11167;46.988;15.470;2023-07-20T03:06:19;2.65;;;1.60;;
22005;SDS011;11167;46.988;15.470;2023-07-20T03:08:20;1.98;;;1.77;;
22005;SDS011;11167;46.988;15.470;2023-07-20T03:10:21;2.75;;;1.90;;
22005;SDS011;11167;46.988;15.470;2023-07-20T03:12:22;2.60;;;1.80;;
22005;SDS011;11167;46.988;15.470;2023-07-20T03:14:25;2.62;;;1.95;;
22005;SDS011;11167;46.988;15.470;2023-07-20T03:16:26;2.80;;;2.30;;
22005;SDS011;11167;46.988;15.470;2023-07-20T03:18:27;3.25;;;1.98;;
22005;SDS011;11167;46.988;15.470;2023-07-20T03:20:29;4.08;;;2.42;;
22005;SDS011;11167;46.988;15.470;2023-07-20T03:22:30;3.42;;;2.02;;
22005;SDS011;11167;46.988;15.470;2023-07-20T03:24:31;5.15;;;2.00;;
22005;SDS011;11167;46.988;15.470;2023-07-20T03:26:32;3.05;;;1.72;;
22005;SDS011;11167;46.988;15.470;2023-07-20T03:28:33;2.60;;;1.75;;
22005;SDS011;11167;46.988;15.470;2023-07-20T03:30:35;2.35;;;1.87;;
22005;SDS011;11167;46.988;15.470;2023-07-20T03:32:36;3.42;;;1.80;;
22005;SDS011;11167;46.988;15.470;2023-07-20T03:34:37;2.77;;;1.52;;
22005;SDS011;11167;46.988;15.470;2023-07-20T03:36:38;2.20;;;1.87;;
22005;SDS011;11167;46.988;15.470;2023-07-20T03:38:39;1.95;;;1.70;;
22005;SDS011;11167;46.988;15.470;2023-07-20T03:40:48;2.30;;;1.60;;
22005;SDS011;11167;46.988;15.470;2023-07-20T03:42:47;2.65;;;1.72;;
22005;SDS011;11167;46.988;15.470;2023-07-20T03:44:49;3.27;;;1.90;;
22005;SDS011;11167;46.988;15.470;2023-07-20T03:46:51;2.52;;;1.75;;
22005;SDS011;11167;46.988;15.470;2023-07-20T03:48:52;3.17;;;1.80;;
22005;SDS011;11167;46.988;15.470;2023-07-20T03:50:53;3.95;;;1.70;;
22005;SDS011;11167;46.988;15.470;2023-07-20T03:52:56;2.45;;;1.77;;
22005;SDS011;11167;46.988;15.470;2023-07-20T03:55:19;4.20;;;2.20;;
22005;SDS011;11167;46.988;15.470;2023-07-20T03:57:20;2.42;;;1.87;;
22005;SDS011;11167;46.988;15.470;2023-07-20T03:59:21;2.75;;;2.05;;
22005;SDS011;11167;46.988;15.470;2023-07-20T04:01:23;2.83;;;2.10;;
22005;SDS011;11167;46.988;15.470;2023-07-20T04:03:24;2.85;;;1.90;;
22005;SDS011;11167;46.988;15.470;2023-07-20T04:05:27;2.67;;;1.80;;
22005;SDS011;11167;46.988;15.470;2023-07-20T04:07:28;2.00;;;1.80;;
22005;SDS011;11167;46.988;15.470;2023-07-20T04:09:29;2.58;;;1.92;;
22005;SDS011;11167;46.988;15.470;2023-07-20T04:11:32;2.33;;;1.82;;
22005;SDS011;11167;46.988;15.470;2023-07-20T04:13:33;2.62;;;1.92;;
22005;SDS011;11167;46.988;15.470;2023-07-20T04:15:34;2.10;;;1.90;;
22005;SDS011;11167;46.988;15.470;2023-07-20T04:17:36;4.33;;;1.95;;
22005;SDS011;11167;46.988;15.470;2023-07-20T04:19:37;3.08;;;2.20;;
22005;SDS011;11167;46.988;15.470;2023-07-20T04:21:40;2.10;;;1.90;;
22005;SDS011;11167;46.988;15.470;2023-07-20T04:23:42;2.12;;;1.90;;
22005;SDS011;11167;46.988;15.470;2023-07-20T04:25:44;2.08;;;1.87;;
22005;SDS011;11167;46.988;15.470;2023-07-20T04:27:45;3.02;;;2.10;;
22005;SDS011;11167;46.988;15.470;2023-07-20T04:29:46;3.65;;;2.20;;
22005;SDS011;11167;46.988;15.470;2023-07-20T04:31:47;3.60;;;2.10;;
22005;SDS011;11167;46.988;15.470;2023-07-20T04:33:49;2.65;;;2.08;;
22005;SDS011;11167;46.988;15.470;2023-07-20T04:35:53;2.15;;;1.85;;
22005;SDS011;11167;46.988;15.470;2023-07-20T04:37:55;2.37;;;2.10;;
22005;SDS011;11167;46.988;15.470;2023-07-20T04:39:56;1.82;;;1.55;;
22005;SDS011;11167;46.988;15.470;2023-07-20T04:41:57;2.87;;;1.95;;
22005;SDS011;11167;46.988;15.470;2023-07-20T04:43:58;1.82;;;1.70;;
22005;SDS011;11167;46.988;15.470;2023-07-20T04:45:59;2.05;;;1.57;;
22005;SDS011;11167;46.988;15.470;2023-07-20T04:48:00;2.30;;;1.85;;
22005;SDS011;11167;46.988;15.470;2023-07-20T04:50:03;2.92;;;2.00;;
22005;SDS011;11167;46.988;15.470;2023-07-20T04:52:04;2.60;;;2.15;;
22005;SDS011;11167;46.988;15.470;2023-07-20T04:54:05;2.35;;;2.10;;
22005;SDS011;11167;46.988;15.470;2023-07-20T04:56:06;1.98;;;1.77;;
22005;SDS011;11167;46.988;15.470;2023-07-20T04:58:08;2.40;;;2.20;;
22005;SDS011;11167;46.988;15.470;2023-07-20T05:00:11;2.08;;;1.85;;
22005;SDS011;11167;46.988;15.470;2023-07-20T05:04:14;2.92;;;2.25;;
22005;SDS011;11167;46.988;15.470;2023-07-20T05:06:15;4.67;;;2.22;;
22005;SDS011;11167;46.988;15.470;2023-07-20T05:08:16;2.87;;;2.55;;
22005;SDS011;11167;46.988;15.470;2023-07-20T05:10:17;2.35;;;2.15;;
22005;SDS011;11167;46.988;15.470;2023-07-20T05:12:19;2.17;;;1.98;;
22005;SDS011;11167;46.988;15.470;2023-07-20T05:14:20;2.35;;;2.10;;
22005;SDS011;11167;46.988;15.470;2023-07-20T05:16:21;3.30;;;2.25;;
22005;SDS011;11167;46.988;15.470;2023-07-20T05:18:22;2.27;;;1.95;;
22005;SDS011;11167;46.988;15.470;2023-07-20T05:20:24;2.72;;;2.08;;
22005;SDS011;11167;46.988;15.470;2023-07-20T05:22:25;2.30;;;2.10;;
22005;SDS011;11167;46.988;15.470;2023-07-20T05:24:26;2.58;;;2.20;;
22005;SDS011;11167;46.988;15.470;2023-07-20T05:26:28;4.45;;;2.62;;
22005;SDS011;11167;46.988;15.470;2023-07-20T05:28:29;3.67;;;2.30;;
22005;SDS011;11167;46.988;15.470;2023-07-20T05:30:30;2.50;;;2.30;;
22005;SDS011;11167;46.988;15.470;2023-07-20T05:32:31;3.65;;;2.47;;
22005;SDS011;11167;46.988;15.470;2023-07-20T05:34:32;3.98;;;2.37;;
22005;SDS011;11167;46.988;15.470;2023-07-20T05:36:33;2.75;;;2.47;;
22005;SDS011;11167;46.988;15.470;2023-07-20T05:38:34;3.72;;;2.58;;
22005;SDS011;11167;46.988;15.470;2023-07-20T05:40:43;3.27;;;2.70;;
22005;SDS011;11167;46.988;15.470;2023-07-20T05:42:45;3.87;;;2.50;;
22005;SDS011;11167;46.988;15.470;2023-07-20T05:44:47;4.47;;;2.33;;
22005;SDS011;11167;46.988;15.470;2023-07-20T05:46:50;2.72;;;2.25;;
22005;SDS011;11167;46.988;15.470;2023-07-20T05:48:51;2.80;;;2.20;;
22005;SDS011;11167;46.988;15.470;2023-07-20T05:50:52;4.37;;;2.52;;
22005;SDS011;11167;46.988;15.470;2023-07-20T05:52:54;3.70;;;2.40;;
22005;SDS011;11167;46.988;15.470;2023-07-20T05:54:56;4.58;;;2.70;;
22005;SDS011;11167;46.988;15.470;2023-07-20T05:56:57;3.33;;;2.42;;
22005;SDS011;11167;46.988;15.470;2023-07-20T05:58:59;3.17;;;2.50;;
22005;SDS011;11167;46.988;15.470;2023-07-20T06:01:00;2.98;;;2.60;;
22005;SDS011;11167;46.988;15.470;2023-07-20T06:03:03;3.92;;;2.90;;
22005;SDS011;11167;46.988;15.470;2023-07-20T06:05:06;2.98;;;2.65;;
22005;SDS011;11167;46.988;15.470;2023-07-20T06:07:10;3.30;;;2.70;;
22005;SDS011;11167;46.988;15.470;2023-07-20T06:09:12;3.27;;;2.58;;
22005;SDS011;11167;46.988;15.470;2023-07-20T06:11:13;3.60;;;2.77;;
22005;SDS011;11167;46.988;15.470;2023-07-20T06:13:14;3.40;;;2.70;;
22005;SDS011;11167;46.988;15.470;2023-07-20T06:15:25;3.08;;;2.67;;
22005;SDS011;11167;46.988;15.470;2023-07-20T06:17:27;3.30;;;2.50;;
22005;SDS011;11167;46.988;15.470;2023-07-20T06:19:28;3.33;;;2.60;;
22005;SDS011;11167;46.988;15.470;2023-07-20T06:21:29;4.00;;;2.80;;
22005;SDS011;11167;46.988;15.470;2023-07-20T06:23:30;3.22;;;2.47;;
22005;SDS011;11167;46.988;15.470;2023-07-20T06:25:31;3.35;;;2.40;;
22005;SDS011;11167;46.988;15.470;2023-07-20T06:27:32;3.02;;;2.70;;
22005;SDS011;11167;46.988;15.470;2023-07-20T06:29:33;3.83;;;3.00;;
22005;SDS011;11167;46.988;15.470;2023-07-20T06:31:35;2.45;;;2.25;;
22005;SDS011;11167;46.988;15.470;2023-07-20T06:33:36;2.90;;;2.60;;
22005;SDS011;11167;46.988;15.470;2023-07-20T06:35:37;2.98;;;2.60;;
22005;SDS011;11167;46.988;15.470;2023-07-20T06:37:40;2.77;;;2.30;;
22005;SDS011;11167;46.988;15.470;2023-07-20T06:39:41;2.62;;;2.33;;
22005;SDS011;11167;46.988;15.470;2023-07-20T06:41:42;2.87;;;2.50;;
22005;SDS011;11167;46.988;15.470;2023-07-20T06:43:43;3.80;;;2.80;;
22005;SDS011;11167;46.988;15.470;2023-07-20T06:45:44;3.05;;;2.60;;
22005;SDS011;11167;46.988;15.470;2023-07-20T06:47:45;2.85;;;2.35;;
22005;SDS011;11167;46.988;15.470;2023-07-20T06:49:46;2.58;;;2.37;;
22005;SDS011;11167;46.988;15.470;2023-07-20T06:51:47;3.08;;;2.60;;
22005;SDS011;11167;46.988;15.470;2023-07-20T06:53:48;2.83;;;2.47;;
22005;SDS011;11167;46.988;15.470;2023-07-20T06:55:49;3.58;;;2.67;;
22005;SDS011;11167;46.988;15.470;2023-07-20T06:57:50;2.40;;;2.20;;
22005;SDS011;11167;46.988;15.470;2023-07-20T06:59:52;2.92;;;2.50;;
22005;SDS011;11167;46.988;15.470;2023-07-20T07:01:54;3.62;;;2.60;;
22005;SDS011;11167;46.988;15.470;2023-07-20T07:03:55;2.40;;;2.20;;
22005;SDS011;11167;46.988;15.470;2023-07-20T07:05:56;3.17;;;2.45;;
22005;SDS011;11167;46.988;15.470;2023-07-20T07:07:57;4.47;;;2.75;;
22005;SDS011;11167;46.988;15.470;2023-07-20T07:09:58;2.60;;;2.35;;
22005;SDS011;11167;46.988;15.470;2023-07-20T07:12:00;4.05;;;2.60;;
22005;SDS011;11167;46.988;15.470;2023-07-20T07:14:01;3.20;;;2.22;;
22005;SDS011;11167;46.988;15.470;2023-07-20T07:16:02;3.17;;;2.80;;
22005;SDS011;11167;46.988;15.470;2023-07-20T07:18:04;2.47;;;2.25;;
22005;SDS011;11167;46.988;15.470;2023-07-20T07:20:05;2.60;;;2.40;;
22005;SDS011;11167;46.988;15.470;2023-07-20T07:22:08;3.15;;;2.42;;
22005;SDS011;11167;46.988;15.470;2023-07-20T07:24:09;4.85;;;2.45;;
22005;SDS011;11167;46.988;15.470;2023-07-20T07:26:11;3.62;;;2.72;;
22005;SDS011;11167;46.988;15.470;2023-07-20T07:28:12;2.70;;;2.33;;
22005;SDS011;11167;46.988;15.470;2023-07-20T07:30:14;2.90;;;2.35;;
22005;SDS011;11167;46.988;15.470;2023-07-20T07:32:15;3.98;;;2.60;;
22005;SDS011;11167;46.988;15.470;2023-07-20T07:34:16;2.80;;;2.50;;
22005;SDS011;11167;46.988;15.470;2023-07-20T07:36:18;3.05;;;2.50;;
22005;SDS011;11167;46.988;15.470;2023-07-20T07:38:19;3.40;;;2.20;;
22005;SDS011;11167;46.988;15.470;2023-07-20T07:40:20;2.62;;;2.22;;
22005;SDS011;11167;46.988;15.470;2023-07-20T07:42:22;2.98;;;2.67;;
22005;SDS011;11167;46.988;15.470;2023-07-20T07:44:23;2.70;;;2.47;;
22005;SDS011;11167;46.988;15.470;2023-07-20T07:46:24;3.58;;;2.10;;
22005;SDS011;11167;46.988;15.470;2023-07-20T07:48:25;3.10;;;2.58;;
22005;SDS011;11167;46.988;15.470;2023-07-20T07:50:27;2.72;;;2.27;;
22005;SDS011;11167;46.988;15.470;2023-07-20T07:52:29;3.00;;;2.60;;
22005;SDS011;11167;46.988;15.470;2023-07-20T07:54:30;2.67;;;2.40;;
22005;SDS011;11167;46.988;15.470;2023-07-20T07:56:31;2.85;;;2.45;;
22005;SDS011;11167;46.988;15.470;2023-07-20T07:58:32;3.47;;;2.20;;
22005;SDS011;11167;46.988;15.470;2023-07-20T08:00:33;4.17;;;2.40;;
22005;SDS011;11167;46.988;15.470;2023-07-20T08:02:34;2.47;;;2.27;;
22005;SDS011;11167;46.988;15.470;2023-07-20T08:04:36;2.72;;;2.12;;
22005;SDS011;11167;46.988;15.470;2023-07-20T08:06:37;3.02;;;2.70;;
22005;SDS011;11167;46.988;15.470;2023-07-20T08:08:38;2.75;;;2.50;;
22005;SDS011;11167;46.988;15.470;2023-07-20T08:10:39;2.67;;;2.40;;
22005;SDS011;11167;46.988;15.470;2023-07-20T08:12:40;3.10;;;2.80;;
22005;SDS011;11167;46.988;15.470;2023-07-20T08:14:41;3.10;;;2.50;;
22005;SDS011;11167;46.988;15.470;2023-07-20T08:16:42;2.83;;;2.50;;
22005;SDS011;11167;46.988;15.470;2023-07-20T08:18:43;3.10;;;2.60;;
22005;SDS011;11167;46.988;15.470;2023-07-20T08:20:46;3.08;;;2.77;;
22005;SDS011;11167;46.988;15.470;2023-07-20T08:22:47;3.05;;;2.35;;
22005;SDS011;11167;46.988;15.470;2023-07-20T08:24:48;2.95;;;2.65;;
22005;SDS011;11167;46.988;15.470;2023-07-20T08:26:49;3.40;;;2.45;;
22005;SDS011;11167;46.988;15.470;2023-07-20T08:28:50;2.83;;;2.50;;
22005;SDS011;11167;46.988;15.470;2023-07-20T08:30:52;2.80;;;2.37;;
22005;SDS011;11167;46.988;15.470;2023-07-20T08:32:54;3.15;;;2.70;;
22005;SDS011;11167;46.988;15.470;2023-07-20T08:34:55;3.20;;;2.80;;
22005;SDS011;11167;46.988;15.470;2023-07-20T08:36:56;3.30;;;2.65;;
22005;SDS011;11167;46.988;15.470;2023-07-20T08:38:57;2.75;;;2.40;;
22005;SDS011;11167;46.988;15.470;2023-07-20T08:40:59;3.10;;;2.80;;
22005;SDS011;11167;46.988;15.470;2023-07-20T08:43:01;2.93;;;2.50;;
22005;SDS011;11167;46.988;15.470;2023-07-20T08:45:03;2.62;;;2.42;;
22005;SDS011;11167;46.988;15.470;2023-07-20T08:47:07;3.33;;;2.55;;
22005;SDS011;11167;46.988;15.470;2023-07-20T08:49:10;3.10;;;2.70;;
22005;SDS011;11167;46.988;15.470;2023-07-20T08:51:12;3.00;;;2.50;;
22005;SDS011;11167;46.988;15.470;2023-07-20T08:53:16;3.27;;;2.90;;
22005;SDS011;11167;46.988;15.470;2023-07-20T08:55:18;2.58;;;2.37;;
22005;SDS011;11167;46.988;15.470;2023-07-20T08:57:23;2.92;;;2.40;;
22005;SDS011;11167;46.988;15.470;2023-07-20T08:59:24;3.33;;;2.83;;
22005;SDS011;11167;46.988;15.470;2023-07-20T09:01:26;3.22;;;2.67;;
22005;SDS011;11167;46.988;15.470;2023-07-20T09:03:30;3.15;;;2.58;;
22005;SDS011;11167;46.988;15.470;2023-07-20T09:05:33;3.25;;;2.47;;
22005;SDS011;11167;46.988;15.470;2023-07-20T09:07:35;3.87;;;2.30;;
22005;SDS011;11167;46.988;15.470;2023-07-20T09:09:40;2.50;;;2.30;;
22005;SDS011;11167;46.988;15.470;2023-07-20T09:11:43;3.35;;;2.40;;
22005;SDS011;11167;46.988;15.470;2023-07-20T09:13:47;3.15;;;2.50;;
22005;SDS011;11167;46.988;15.470;2023-07-20T09:15:53;5.25;;;2.50;;
22005;SDS011;11167;46.988;15.470;2023-07-20T09:17:55;2.90;;;2.52;;
22005;SDS011;11167;46.988;15.470;2023-07-20T09:19:56;2.87;;;2.58;;
22005;SDS011;11167;46.988;15.470;2023-07-20T09:21:57;2.62;;;2.25;;
22005;SDS011;11167;46.988;15.470;2023-07-20T09:23:58;2.90;;;2.50;;
22005;SDS011;11167;46.988;15.470;2023-07-20T09:25:59;3.47;;;2.67;;
22005;SDS011;11167;46.988;15.470;2023-07-20T09:28:02;3.10;;;2.80;;
22005;SDS011;11167;46.988;15.470;2023-07-20T09:30:05;3.50;;;2.65;;
22005;SDS011;11167;46.988;15.470;2023-07-20T09:32:08;2.95;;;2.40;;
22005;SDS011;11167;46.988;15.470;2023-07-20T09:34:10;4.17;;;2.87;;
22005;SDS011;11167;46.988;15.470;2023-07-20T09:36:11;2.87;;;2.58;;
22005;SDS011;11167;46.988;15.470;2023-07-20T09:38:12;3.52;;;2.67;;
22005;SDS011;11167;46.988;15.470;2023-07-20T09:40:16;3.77;;;2.98;;
22005;SDS011;11167;46.988;15.470;2023-07-20T09:42:19;3.30;;;2.87;;
22005;SDS011;11167;46.988;15.470;2023-07-20T09:44:22;4.10;;;2.77;;
22005;SDS011;11167;46.988;15.470;2023-07-20T09:46:23;3.10;;;2.55;;
22005;SDS011;11167;46.988;15.470;2023-07-20T09:48:25;3.05;;;2.47;;
22005;SDS011;11167;46.988;15.470;2023-07-20T09:50:27;3.10;;;2.70;;
22005;SDS011;11167;46.988;15.470;2023-07-20T09:52:28;3.77;;;2.45;;
22005;SDS011;11167;46.988;15.470;2023-07-20T09:54:30;2.87;;;2.50;;
22005;SDS011;11167;46.988;15.470;2023-07-20T09:56:33;2.90;;;2.45;;
22005;SDS011;11167;46.988;15.470;2023-07-20T09:58:35;3.45;;;2.62;;
22005;SDS011;11167;46.988;15.470;2023-07-20T10:00:37;2.83;;;2.52;;
22005;SDS011;11167;46.988;15.470;2023-07-20T10:02:45;2.92;;;2.62;;
22005;SDS011;11167;46.988;15.470;2023-07-20T10:04:47;2.98;;;2.67;;
22005;SDS011;11167;46.988;15.470;2023-07-20T10:06:51;2.67;;;2.47;;
22005;SDS011;11167;46.988;15.470;2023-07-20T10:08:55;5.25;;;3.20;;
22005;SDS011;11167;46.988;15.470;2023-07-20T10:10:59;2.80;;;2.50;;
22005;SDS011;11167;46.988;15.470;2023-07-20T10:13:02;3.10;;;2.80;;
22005;SDS011;11167;46.988;15.470;2023-07-20T10:15:15;3.00;;;2.65;;
22005;SDS011;11167;46.988;15.470;2023-07-20T10:17:14;3.22;;;2.67;;
22005;SDS011;11167;46.988;15.470;2023-07-20T10:19:22;3.37;;;2.62;;
22005;SDS011;11167;46.988;15.470;2023-07-20T10:21:25;2.92;;;2.62;;
22005;SDS011;11167;46.988;15.470;2023-07-20T10:23:30;2.62;;;2.42;;
22005;SDS011;11167;46.988;15.470;2023-07-20T10:25:32;2.85;;;2.52;;
22005;SDS011;11167;46.988;15.470;2023-07-20T10:29:37;3.30;;;2.70;;
22005;SDS011;11167;46.988;15.470;2023-07-20T10:31:40;3.35;;;2.77;;
22005;SDS011;11167;46.988;15.470;2023-07-20T10:33:41;3.40;;;2.55;;
22005;SDS011;11167;46.988;15.470;2023-07-20T10:35:52;3.67;;;2.87;;
22005;SDS011;11167;46.988;15.470;2023-07-20T10:37:59;3.42;;;2.50;;
22005;SDS011;11167;46.988;15.470;2023-07-20T10:40:23;2.45;;;2.20;;
22005;SDS011;11167;46.988;15.470;2023-07-20T10:42:22;2.62;;;2.27;;
22005;SDS011;11167;46.988;15.470;2023-07-20T10:44:24;2.95;;;2.65;;
22005;SDS011;11167;46.988;15.470;2023-07-20T10:46:44;2.60;;;2.33;;
22005;SDS011;11167;46.988;15.470;2023-07-20T10:49:03;3.33;;;2.77;;
22005;SDS011;11167;46.988;15.470;2023-07-20T10:51:19;3.10;;;2.27;;
22005;SDS011;11167;46.988;15.470;2023-07-20T10:53:21;2.75;;;2.52;;
22005;SDS011;11167;46.988;15.470;2023-07-20T10:55:22;3.37;;;2.60;;
22005;SDS011;11167;46.988;15.470;2023-07-20T10:57:24;2.80;;;2.40;;
22005;SDS011;11167;46.988;15.470;2023-07-20T11:01:36;2.60;;;2.25;;
22005;SDS011;11167;46.988;15.470;2023-07-20T11:03:38;2.95;;;2.52;;
22005;SDS011;11167;46.988;15.470;2023-07-20T11:05:41;2.67;;;2.30;;
22005;SDS011;11167;46.988;15.470;2023-07-20T11:07:42;2.60;;;2.40;;
22005;SDS011;11167;46.988;15.470;2023-07-20T11:09:44;2.83;;;2.40;;
22005;SDS011;11167;46.988;15.470;2023-07-20T11:11:49;2.62;;;2.30;;
22005;SDS011;11167;46.988;15.470;2023-07-20T11:14:02;2.00;;;1.82;;
22005;SDS011;11167;46.988;15.470;2023-07-20T11:16:04;2.50;;;2.30;;
22005;SDS011;11167;46.988;15.470;2023-07-20T11:18:12;2.65;;;2.25;;
22005;SDS011;11167;46.988;15.470;2023-07-20T11:20:13;2.70;;;2.20;;
22005;SDS011;11167;46.988;15.470;2023-07-20T11:22:17;2.20;;;1.90;;
22005;SDS011;11167;46.988;15.470;2023-07-20T11:24:18;2.27;;;2.08;;
22005;SDS011;11167;46.988;15.470;2023-07-20T11:26:21;2.42;;;2.05;;
22005;SDS011;11167;46.988;15.470;2023-07-20T11:28:22;2.80;;;2.50;;
22005;SDS011;11167;46.988;15.470;2023-07-20T11:30:23;2.72;;;2.08;;
22005;SDS011;11167;46.988;15.470;2023-07-20T11:32:24;2.87;;;2.20;;
22005;SDS011;11167;46.988;15.470;2023-07-20T11:34:26;2.55;;;2.20;;
22005;SDS011;11167;46.988;15.470;2023-07-20T11:36:29;2.30;;;2.10;;
22005;SDS011;11167;46.988;15.470;2023-07-20T11:38:30;2.20;;;2.00;;
22005;SDS011;11167;46.988;15.470;2023-07-20T11:40:32;2.40;;;2.10;;
22005;SDS011;11167;46.988;15.470;2023-07-20T11:42:34;2.98;;;2.35;;
22005;SDS011;11167;46.988;15.470;2023-07-20T11:44:35;2.42;;;2.10;;
22005;SDS011;11167;46.988;15.470;2023-07-20T11:46:36;3.37;;;2.20;;
22005;SDS011;11167;46.988;15.470;2023-07-20T11:48:37;1.82;;;1.72;;
22005;SDS011;11167;46.988;15.470;2023-07-20T11:50:40;2.40;;;2.20;;
22005;SDS011;11167;46.988;15.470;2023-07-20T11:52:42;2.17;;;1.98;;
22005;SDS011;11167;46.988;15.470;2023-07-20T11:54:44;2.42;;;2.20;;
22005;SDS011;11167;46.988;15.470;2023-07-20T11:56:46;2.45;;;2.00;;
22005;SDS011;11167;46.988;15.470;2023-07-20T11:58:47;2.22;;;2.02;;
22005;SDS011;11167;46.988;15.470;2023-07-20T12:00:48;2.25;;;2.05;;
22005;SDS011;11167;46.988;15.470;2023-07-20T12:02:49;2.05;;;1.85;;
22005;SDS011;11167;46.988;15.470;2023-07-20T12:04:51;3.00;;;2.37;;
22005;SDS011;11167;46.988;15.470;2023-07-20T12:06:53;2.60;;;2.40;;
22005;SDS011;11167;46.988;15.470;2023-07-20T12:08:56;2.10;;;1.90;;
22005;SDS011;11167;46.988;15.470;2023-07-20T12:10:58;2.05;;;1.85;;
22005;SDS011;11167;46.988;15.470;2023-07-20T12:13:02;2.80;;;2.25;;
22005;SDS011;11167;46.988;15.470;2023-07-20T12:17:24;2.20;;;2.00;;
22005;SDS011;11167;46.988;15.470;2023-07-20T12:19:25;2.42;;;2.20;;
22005;SDS011;11167;46.988;15.470;2023-07-20T12:21:26;2.42;;;2.22;;
22005;SDS011;11167;46.988;15.470;2023-07-20T12:23:34;2.22;;;2.02;;
22005;SDS011;11167;46.988;15.470;2023-07-20T12:27:44;2.70;;;2.25;;
22005;SDS011;11167;46.988;15.470;2023-07-20T12:29:45;2.12;;;1.92;;
22005;SDS011;11167;46.988;15.470;2023-07-20T12:31:46;2.60;;;2.10;;
22005;SDS011;11167;46.988;15.470;2023-07-20T12:33:47;2.10;;;1.90;;